sensor_id;sensor_type;location;lat;lon;timestamp;temperature;humidity
77727;SHT30;68312;53.502;10.030;2023-07-13T00:00:29;15.31;94.82
77727;SHT30;68312;53.502;10.030;2023-07-13T00:02:55;15.24;94.87
77727;SHT30;68312;53.502;10.030;2023-07-13T00:05:22;15.22;94.93
77727;SHT30;68312;53.502;10.030;2023-07-13T00:07:50;15.18;95.00
77727;SHT30;68312;53.502;10.030;2023-07-13T00:10:17;15.18;95.07
77727;SHT30;68312;53.502;10.030;2023-07-13T00:12:43;15.18;95.19
77727;SHT30;68312;53.502;10.030;2023-07-13T00:15:18;15.13;95.23
77727;SHT30;68312;53.502;10.030;2023-07-13T00:17:49;15.10;95.21
77727;SHT30;68312;53.502;10.030;2023-07-13T00:20:15;14.99;95.22
77727;SHT30;68312;53.502;10.030;2023-07-13T00:22:40;14.96;95.20
77727;SHT30;68312;53.502;10.030;2023-07-13T00:25:06;14.88;95.24
77727;SHT30;68312;53.502;10.030;2023-07-13T00:27:33;14.79;95.26
77727;SHT30;68312;53.502;10.030;2023-07-13T00:29:59;14.72;95.26
77727;SHT30;68312;53.502;10.030;2023-07-13T00:32:24;14.60;95.29
77727;SHT30;68312;53.502;10.030;2023-07-13T00:34:52;14.57;95.37
77727;SHT30;68312;53.502;10.030;2023-07-13T00:40:58;14.49;95.54
77727;SHT30;68312;53.502;10.030;2023-07-13T00:43:26;14.42;95.57
77727;SHT30;68312;53.502;10.030;2023-07-13T00:48:21;14.34;95.65
77727;SHT30;68312;53.502;10.030;2023-07-13T00:50:53;14.27;95.66
77727;SHT30;68312;53.502;10.030;2023-07-13T00:53:21;14.21;95.63
77727;SHT30;68312;53.502;10.030;2023-07-13T00:55:50;14.20;95.74
77727;SHT30;68312;53.502;10.030;2023-07-13T00:58:16;14.16;95.86
77727;SHT30;68312;53.502;10.030;2023-07-13T01:00:42;14.16;95.87
77727;SHT30;68312;53.502;10.030;2023-07-13T01:03:08;14.10;95.92
77727;SHT30;68312;53.502;10.030;2023-07-13T01:05:35;14.06;95.92
77727;SHT30;68312;53.502;10.030;2023-07-13T01:08:03;14.03;95.94
77727;SHT30;68312;53.502;10.030;2023-07-13T01:14:10;13.97;95.97
77727;SHT30;68312;53.502;10.030;2023-07-13T01:16:37;13.91;96.06
77727;SHT30;68312;53.502;10.030;2023-07-13T01:19:15;13.89;96.01
77727;SHT30;68312;53.502;10.030;2023-07-13T01:21:43;13.90;96.10
77727;SHT30;68312;53.502;10.030;2023-07-13T01:24:09;13.97;96.20
77727;SHT30;68312;53.502;10.030;2023-07-13T01:26:35;13.94;96.19
77727;SHT30;68312;53.502;10.030;2023-07-13T01:29:00;13.91;96.23
77727;SHT30;68312;53.502;10.030;2023-07-13T01:31:26;13.84;96.18
77727;SHT30;68312;53.502;10.030;2023-07-13T01:33:51;13.83;96.24
77727;SHT30;68312;53.502;10.030;2023-07-13T01:36:16;13.80;96.25
77727;SHT30;68312;53.502;10.030;2023-07-13T01:38:42;13.77;96.23
77727;SHT30;68312;53.502;10.030;2023-07-13T01:41:07;13.76;96.22
77727;SHT30;68312;53.502;10.030;2023-07-13T01:43:33;13.73;96.22
77727;SHT30;68312;53.502;10.030;2023-07-13T01:45:58;13.74;96.29
77727;SHT30;68312;53.502;10.030;2023-07-13T01:48:25;13.77;96.34
77727;SHT30;68312;53.502;10.030;2023-07-13T01:50:50;13.79;96.40
77727;SHT30;68312;53.502;10.030;2023-07-13T01:53:15;13.73;96.39
77727;SHT30;68312;53.502;10.030;2023-07-13T01:55:41;13.70;96.39
77727;SHT30;68312;53.502;10.030;2023-07-13T01:58:07;13.66;96.45
77727;SHT30;68312;53.502;10.030;2023-07-13T02:00:33;13.66;96.43
77727;SHT30;68312;53.502;10.030;2023-07-13T02:02:58;13.63;96.49
77727;SHT30;68312;53.502;10.030;2023-07-13T02:05:24;13.62;96.51
77727;SHT30;68312;53.502;10.030;2023-07-13T02:07:50;13.62;96.56
77727;SHT30;68312;53.502;10.030;2023-07-13T02:10:15;13.62;96.56
77727;SHT30;68312;53.502;10.030;2023-07-13T02:12:42;13.62;96.59
77727;SHT30;68312;53.502;10.030;2023-07-13T02:15:09;13.56;96.62
77727;SHT30;68312;53.502;10.030;2023-07-13T02:17:35;13.58;96.65
77727;SHT30;68312;53.502;10.030;2023-07-13T02:20:02;13.59;96.70
77727;SHT30;68312;53.502;10.030;2023-07-13T02:22:28;13.61;96.67
77727;SHT30;68312;53.502;10.030;2023-07-13T02:24:53;13.62;96.75
77727;SHT30;68312;53.502;10.030;2023-07-13T02:27:19;13.63;96.77
77727;SHT30;68312;53.502;10.030;2023-07-13T02:29:44;13.59;96.77
77727;SHT30;68312;53.502;10.030;2023-07-13T02:32:10;13.56;96.77
77727;SHT30;68312;53.502;10.030;2023-07-13T02:34:35;13.52;96.73
77727;SHT30;68312;53.502;10.030;2023-07-13T02:37:02;13.55;96.82
77727;SHT30;68312;53.502;10.030;2023-07-13T02:39:27;13.61;96.87
77727;SHT30;68312;53.502;10.030;2023-07-13T02:41:53;13.61;96.85
77727;SHT30;68312;53.502;10.030;2023-07-13T02:45:06;13.61;96.85
77727;SHT30;68312;53.502;10.030;2023-07-13T02:47:33;13.59;96.89
77727;SHT30;68312;53.502;10.030;2023-07-13T02:49:58;13.58;96.87
77727;SHT30;68312;53.502;10.030;2023-07-13T02:52:24;13.49;96.87
77727;SHT30;68312;53.502;10.030;2023-07-13T02:54:50;13.49;96.88
77727;SHT30;68312;53.502;10.030;2023-07-13T02:57:16;13.53;96.91
77727;SHT30;68312;53.502;10.030;2023-07-13T02:59:41;13.53;96.95
77727;SHT30;68312;53.502;10.030;2023-07-13T03:02:06;13.55;96.99
77727;SHT30;68312;53.502;10.030;2023-07-13T03:04:32;13.58;97.00
77727;SHT30;68312;53.502;10.030;2023-07-13T03:06:57;13.55;97.00
77727;SHT30;68312;53.502;10.030;2023-07-13T03:09:25;13.55;97.03
77727;SHT30;68312;53.502;10.030;2023-07-13T03:11:55;13.52;97.00
77727;SHT30;68312;53.502;10.030;2023-07-13T03:14:23;13.46;96.99
77727;SHT30;68312;53.502;10.030;2023-07-13T03:16:49;13.45;97.01
77727;SHT30;68312;53.502;10.030;2023-07-13T03:19:14;13.45;96.96
77727;SHT30;68312;53.502;10.030;2023-07-13T03:21:40;13.52;97.04
77727;SHT30;68312;53.502;10.030;2023-07-13T03:27:47;13.59;97.10
77727;SHT30;68312;53.502;10.030;2023-07-13T03:30:14;13.59;97.05
77727;SHT30;68312;53.502;10.030;2023-07-13T03:32:39;13.58;97.09
77727;SHT30;68312;53.502;10.030;2023-07-13T03:35:05;13.55;97.03
77727;SHT30;68312;53.502;10.030;2023-07-13T03:37:30;13.55;97.02
77727;SHT30;68312;53.502;10.030;2023-07-13T03:39:56;13.56;97.05
77727;SHT30;68312;53.502;10.030;2023-07-13T03:42:21;13.58;97.03
77727;SHT30;68312;53.502;10.030;2023-07-13T03:44:47;13.59;97.03
77727;SHT30;68312;53.502;10.030;2023-07-13T03:47:17;13.55;96.99
77727;SHT30;68312;53.502;10.030;2023-07-13T03:49:43;13.59;96.98
77727;SHT30;68312;53.502;10.030;2023-07-13T03:52:08;13.63;97.02
77727;SHT30;68312;53.502;10.030;2023-07-13T03:54:33;13.63;97.00
77727;SHT30;68312;53.502;10.030;2023-07-13T03:56:59;13.66;97.02
77727;SHT30;68312;53.502;10.030;2023-07-13T03:59:24;13.70;96.96
77727;SHT30;68312;53.502;10.030;2023-07-13T04:01:49;13.79;96.94
77727;SHT30;68312;53.502;10.030;2023-07-13T04:04:15;13.82;96.87
77727;SHT30;68312;53.502;10.030;2023-07-13T04:06:40;13.89;96.75
77727;SHT30;68312;53.502;10.030;2023-07-13T04:09:06;13.90;96.54
77727;SHT30;68312;53.502;10.030;2023-07-13T04:11:32;13.91;96.46
77727;SHT30;68312;53.502;10.030;2023-07-13T04:13:59;13.93;96.20
77727;SHT30;68312;53.502;10.030;2023-07-13T04:16:25;13.93;96.05
77727;SHT30;68312;53.502;10.030;2023-07-13T04:18:51;14.00;95.87
77727;SHT30;68312;53.502;10.030;2023-07-13T04:21:20;14.03;95.77
77727;SHT30;68312;53.502;10.030;2023-07-13T04:23:46;14.04;95.71
77727;SHT30;68312;53.502;10.030;2023-07-13T04:26:12;14.04;95.62
77727;SHT30;68312;53.502;10.030;2023-07-13T04:28:37;14.09;95.48
77727;SHT30;68312;53.502;10.030;2023-07-13T04:31:03;14.14;95.26
77727;SHT30;68312;53.502;10.030;2023-07-13T04:33:29;14.16;95.26
77727;SHT30;68312;53.502;10.030;2023-07-13T04:35:55;14.24;95.14
77727;SHT30;68312;53.502;10.030;2023-07-13T04:38:27;14.28;94.83
77727;SHT30;68312;53.502;10.030;2023-07-13T04:40:56;14.32;94.40
77727;SHT30;68312;53.502;10.030;2023-07-13T04:43:23;14.41;94.12
77727;SHT30;68312;53.502;10.030;2023-07-13T04:45:51;14.54;93.39
77727;SHT30;68312;53.502;10.030;2023-07-13T04:48:17;14.57;93.37
77727;SHT30;68312;53.502;10.030;2023-07-13T04:50:43;14.61;93.15
77727;SHT30;68312;53.502;10.030;2023-07-13T04:53:11;14.67;92.98
77727;SHT30;68312;53.502;10.030;2023-07-13T04:55:37;14.71;92.97
77727;SHT30;68312;53.502;10.030;2023-07-13T04:58:03;14.85;92.21
77727;SHT30;68312;53.502;10.030;2023-07-13T05:00:30;14.93;92.11
77727;SHT30;68312;53.502;10.030;2023-07-13T05:02:57;14.96;92.01
77727;SHT30;68312;53.502;10.030;2023-07-13T05:05:25;15.03;91.69
77727;SHT30;68312;53.502;10.030;2023-07-13T05:07:52;15.18;91.22
77727;SHT30;68312;53.502;10.030;2023-07-13T05:10:17;15.36;90.91
77727;SHT30;68312;53.502;10.030;2023-07-13T05:12:43;15.62;86.98
77727;SHT30;68312;53.502;10.030;2023-07-13T05:15:09;15.87;87.34
77727;SHT30;68312;53.502;10.030;2023-07-13T05:17:35;16.06;85.38
77727;SHT30;68312;53.502;10.030;2023-07-13T05:20:00;16.25;84.73
77727;SHT30;68312;53.502;10.030;2023-07-13T05:22:26;16.39;83.16
77727;SHT30;68312;53.502;10.030;2023-07-13T05:24:51;16.60;82.62
77727;SHT30;68312;53.502;10.030;2023-07-13T05:27:17;16.77;82.81
77727;SHT30;68312;53.502;10.030;2023-07-13T05:29:42;16.91;81.77
77727;SHT30;68312;53.502;10.030;2023-07-13T05:32:07;17.00;81.09
77727;SHT30;68312;53.502;10.030;2023-07-13T05:34:33;17.08;82.59
77727;SHT30;68312;53.502;10.030;2023-07-13T05:36:58;17.03;81.36
77727;SHT30;68312;53.502;10.030;2023-07-13T05:39:25;17.07;81.75
77727;SHT30;68312;53.502;10.030;2023-07-13T05:41:51;17.00;81.80
77727;SHT30;68312;53.502;10.030;2023-07-13T05:44:16;16.97;82.07
77727;SHT30;68312;53.502;10.030;2023-07-13T05:46:42;16.98;82.70
77727;SHT30;68312;53.502;10.030;2023-07-13T05:49:07;16.97;82.50
77727;SHT30;68312;53.502;10.030;2023-07-13T05:51:33;16.95;82.94
77727;SHT30;68312;53.502;10.030;2023-07-13T05:53:59;16.98;82.10
77727;SHT30;68312;53.502;10.030;2023-07-13T05:56:24;16.97;81.99
77727;SHT30;68312;53.502;10.030;2023-07-13T05:58:51;17.04;82.60
77727;SHT30;68312;53.502;10.030;2023-07-13T06:01:17;17.12;81.81
77727;SHT30;68312;53.502;10.030;2023-07-13T06:03:45;17.24;81.74
77727;SHT30;68312;53.502;10.030;2023-07-13T06:06:10;17.34;81.58
77727;SHT30;68312;53.502;10.030;2023-07-13T06:08:37;17.40;81.25
77727;SHT30;68312;53.502;10.030;2023-07-13T06:11:19;17.45;81.42
77727;SHT30;68312;53.502;10.030;2023-07-13T06:13:45;17.47;80.62
77727;SHT30;68312;53.502;10.030;2023-07-13T06:16:12;17.49;80.63
77727;SHT30;68312;53.502;10.030;2023-07-13T06:18:39;17.49;79.18
77727;SHT30;68312;53.502;10.030;2023-07-13T06:21:10;17.46;79.81
77727;SHT30;68312;53.502;10.030;2023-07-13T06:23:37;17.47;80.03
77727;SHT30;68312;53.502;10.030;2023-07-13T06:26:04;17.47;79.93
77727;SHT30;68312;53.502;10.030;2023-07-13T06:28:30;17.34;79.42
77727;SHT30;68312;53.502;10.030;2023-07-13T06:30:57;17.45;79.01
77727;SHT30;68312;53.502;10.030;2023-07-13T06:33:22;17.53;79.53
77727;SHT30;68312;53.502;10.030;2023-07-13T06:35:49;17.52;78.94
77727;SHT30;68312;53.502;10.030;2023-07-13T06:38:14;17.53;79.00
77727;SHT30;68312;53.502;10.030;2023-07-13T06:40:39;17.57;78.79
77727;SHT30;68312;53.502;10.030;2023-07-13T06:43:06;17.65;79.54
77727;SHT30;68312;53.502;10.030;2023-07-13T06:49:23;17.65;79.71
77727;SHT30;68312;53.502;10.030;2023-07-13T06:51:48;17.67;79.05
77727;SHT30;68312;53.502;10.030;2023-07-13T06:54:13;17.73;79.03
77727;SHT30;68312;53.502;10.030;2023-07-13T06:56:39;17.84;79.33
77727;SHT30;68312;53.502;10.030;2023-07-13T06:59:04;17.87;78.11
77727;SHT30;68312;53.502;10.030;2023-07-13T07:01:30;17.91;78.10
77727;SHT30;68312;53.502;10.030;2023-07-13T07:03:55;18.05;78.58
77727;SHT30;68312;53.502;10.030;2023-07-13T07:06:21;18.04;77.39
77727;SHT30;68312;53.502;10.030;2023-07-13T07:08:52;18.11;77.11
77727;SHT30;68312;53.502;10.030;2023-07-13T07:11:23;17.98;77.87
77727;SHT30;68312;53.502;10.030;2023-07-13T07:13:50;18.08;77.58
77727;SHT30;68312;53.502;10.030;2023-07-13T07:16:16;18.08;78.03
77727;SHT30;68312;53.502;10.030;2023-07-13T07:18:41;18.25;77.85
77727;SHT30;68312;53.502;10.030;2023-07-13T07:21:07;18.21;77.33
77727;SHT30;68312;53.502;10.030;2023-07-13T07:23:34;18.27;77.28
77727;SHT30;68312;53.502;10.030;2023-07-13T07:26:00;18.59;77.27
77727;SHT30;68312;53.502;10.030;2023-07-13T07:28:25;18.49;76.55
77727;SHT30;68312;53.502;10.030;2023-07-13T07:30:55;18.82;76.27
77727;SHT30;68312;53.502;10.030;2023-07-13T07:33:24;19.26;75.84
77727;SHT30;68312;53.502;10.030;2023-07-13T07:35:51;19.16;73.99
77727;SHT30;68312;53.502;10.030;2023-07-13T07:38:17;18.93;74.76
77727;SHT30;68312;53.502;10.030;2023-07-13T07:40:43;19.26;74.26
77727;SHT30;68312;53.502;10.030;2023-07-13T07:43:11;19.24;74.07
77727;SHT30;68312;53.502;10.030;2023-07-13T07:45:37;19.40;72.35
77727;SHT30;68312;53.502;10.030;2023-07-13T07:48:04;19.35;73.17
77727;SHT30;68312;53.502;10.030;2023-07-13T07:50:31;19.72;73.98
77727;SHT30;68312;53.502;10.030;2023-07-13T07:52:56;19.88;71.98
77727;SHT30;68312;53.502;10.030;2023-07-13T07:55:23;20.22;71.67
77727;SHT30;68312;53.502;10.030;2023-07-13T07:57:51;19.95;72.13
77727;SHT30;68312;53.502;10.030;2023-07-13T08:00:16;19.81;71.59
77727;SHT30;68312;53.502;10.030;2023-07-13T08:02:43;19.62;71.50
77727;SHT30;68312;53.502;10.030;2023-07-13T08:05:09;19.68;71.86
77727;SHT30;68312;53.502;10.030;2023-07-13T08:07:36;20.13;70.41
77727;SHT30;68312;53.502;10.030;2023-07-13T08:10:02;20.51;70.58
77727;SHT30;68312;53.502;10.030;2023-07-13T08:12:27;20.78;69.25
77727;SHT30;68312;53.502;10.030;2023-07-13T08:14:53;21.07;68.05
77727;SHT30;68312;53.502;10.030;2023-07-13T08:17:20;21.31;67.35
77727;SHT30;68312;53.502;10.030;2023-07-13T08:19:45;21.34;66.76
77727;SHT30;68312;53.502;10.030;2023-07-13T08:22:11;21.57;67.10
77727;SHT30;68312;53.502;10.030;2023-07-13T08:24:38;21.67;64.35
77727;SHT30;68312;53.502;10.030;2023-07-13T08:27:03;21.75;65.36
77727;SHT30;68312;53.502;10.030;2023-07-13T08:29:29;21.80;65.53
77727;SHT30;68312;53.502;10.030;2023-07-13T08:31:57;21.92;64.02
77727;SHT30;68312;53.502;10.030;2023-07-13T08:34:23;21.97;64.24
77727;SHT30;68312;53.502;10.030;2023-07-13T08:36:48;21.42;64.65
77727;SHT30;68312;53.502;10.030;2023-07-13T08:42:58;21.86;63.04
77727;SHT30;68312;53.502;10.030;2023-07-13T08:45:47;21.65;64.87
77727;SHT30;68312;53.502;10.030;2023-07-13T08:48:26;22.96;60.10
77727;SHT30;68312;53.502;10.030;2023-07-13T08:53:50;23.53;59.53
77727;SHT30;68312;53.502;10.030;2023-07-13T08:56:22;22.59;60.07
77727;SHT30;68312;53.502;10.030;2023-07-13T08:58:55;22.14;61.99
77727;SHT30;68312;53.502;10.030;2023-07-13T09:04:21;22.17;63.14
77727;SHT30;68312;53.502;10.030;2023-07-13T09:09:49;21.45;64.77
77727;SHT30;68312;53.502;10.030;2023-07-13T09:15:32;20.26;68.63
77727;SHT30;68312;53.502;10.030;2023-07-13T09:18:10;20.10;69.23
77727;SHT30;68312;53.502;10.030;2023-07-13T09:23:24;20.08;69.80
77727;SHT30;68312;53.502;10.030;2023-07-13T09:26:12;22.25;63.33
77727;SHT30;68312;53.502;10.030;2023-07-13T09:28:42;24.15;57.60
77727;SHT30;68312;53.502;10.030;2023-07-13T09:31:19;23.37;58.86
77727;SHT30;68312;53.502;10.030;2023-07-13T09:33:46;22.82;60.13
77727;SHT30;68312;53.502;10.030;2023-07-13T09:36:28;23.65;58.27
77727;SHT30;68312;53.502;10.030;2023-07-13T09:39:14;25.24;54.83
77727;SHT30;68312;53.502;10.030;2023-07-13T09:41:55;25.07;54.26
77727;SHT30;68312;53.502;10.030;2023-07-13T09:44:50;24.60;55.02
77727;SHT30;68312;53.502;10.030;2023-07-13T09:47:26;24.48;53.50
77727;SHT30;68312;53.502;10.030;2023-07-13T09:50:09;23.97;55.56
77727;SHT30;68312;53.502;10.030;2023-07-13T09:52:49;24.81;54.20
77727;SHT30;68312;53.502;10.030;2023-07-13T09:55:38;25.15;52.73
77727;SHT30;68312;53.502;10.030;2023-07-13T09:58:15;24.46;54.16
77727;SHT30;68312;53.502;10.030;2023-07-13T10:00:43;24.40;53.47
77727;SHT30;68312;53.502;10.030;2023-07-13T10:03:26;24.84;52.54
77727;SHT30;68312;53.502;10.030;2023-07-13T10:05:52;23.92;54.24
77727;SHT30;68312;53.502;10.030;2023-07-13T10:08:28;22.43;56.55
77727;SHT30;68312;53.502;10.030;2023-07-13T10:11:27;21.94;58.68
77727;SHT30;68312;53.502;10.030;2023-07-13T10:14:16;21.66;60.14
77727;SHT30;68312;53.502;10.030;2023-07-13T10:16:46;22.34;59.53
77727;SHT30;68312;53.502;10.030;2023-07-13T10:19:29;22.58;58.08
77727;SHT30;68312;53.502;10.030;2023-07-13T10:22:02;22.22;60.32
77727;SHT30;68312;53.502;10.030;2023-07-13T10:24:37;21.56;59.59
77727;SHT30;68312;53.502;10.030;2023-07-13T10:29:46;22.18;57.58
77727;SHT30;68312;53.502;10.030;2023-07-13T10:32:13;24.16;52.86
77727;SHT30;68312;53.502;10.030;2023-07-13T10:34:46;24.70;50.13
77727;SHT30;68312;53.502;10.030;2023-07-13T10:37:22;25.50;48.86
77727;SHT30;68312;53.502;10.030;2023-07-13T10:39:50;25.56;46.60
77727;SHT30;68312;53.502;10.030;2023-07-13T10:42:29;25.72;45.48
77727;SHT30;68312;53.502;10.030;2023-07-13T10:44:56;25.46;47.03
77727;SHT30;68312;53.502;10.030;2023-07-13T10:47:22;26.27;45.86
77727;SHT30;68312;53.502;10.030;2023-07-13T10:49:53;26.37;45.08
77727;SHT30;68312;53.502;10.030;2023-07-13T10:56:18;23.98;48.43
77727;SHT30;68312;53.502;10.030;2023-07-13T10:58:45;22.83;51.72
77727;SHT30;68312;53.502;10.030;2023-07-13T11:01:17;22.00;53.75
77727;SHT30;68312;53.502;10.030;2023-07-13T11:04:00;23.31;51.99
77727;SHT30;68312;53.502;10.030;2023-07-13T11:08:57;25.27;46.48
77727;SHT30;68312;53.502;10.030;2023-07-13T11:19:39;25.86;43.43
77727;SHT30;68312;53.502;10.030;2023-07-13T11:25:01;25.24;47.41
77727;SHT30;68312;53.502;10.030;2023-07-13T11:27:33;24.81;47.40
77727;SHT30;68312;53.502;10.030;2023-07-13T11:33:25;23.86;50.15
77727;SHT30;68312;53.502;10.030;2023-07-13T11:36:04;24.18;46.03
77727;SHT30;68312;53.502;10.030;2023-07-13T11:38:40;24.66;45.87
77727;SHT30;68312;53.502;10.030;2023-07-13T11:41:19;25.21;44.77
77727;SHT30;68312;53.502;10.030;2023-07-13T11:43:49;25.19;46.07
77727;SHT30;68312;53.502;10.030;2023-07-13T11:46:27;26.24;42.66
77727;SHT30;68312;53.502;10.030;2023-07-13T11:48:54;25.86;42.99
77727;SHT30;68312;53.502;10.030;2023-07-13T11:51:33;25.75;46.88
77727;SHT30;68312;53.502;10.030;2023-07-13T11:54:17;24.98;42.90
77727;SHT30;68312;53.502;10.030;2023-07-13T11:56:44;24.40;46.07
77727;SHT30;68312;53.502;10.030;2023-07-13T11:59:12;24.05;46.15
77727;SHT30;68312;53.502;10.030;2023-07-13T12:01:51;24.84;44.71
77727;SHT30;68312;53.502;10.030;2023-07-13T12:04:44;25.73;46.69
77727;SHT30;68312;53.502;10.030;2023-07-13T12:07:19;25.50;44.67
77727;SHT30;68312;53.502;10.030;2023-07-13T12:09:45;24.49;47.43
77727;SHT30;68312;53.502;10.030;2023-07-13T12:12:16;23.88;48.62
77727;SHT30;68312;53.502;10.030;2023-07-13T12:14:43;23.12;50.19
77727;SHT30;68312;53.502;10.030;2023-07-13T12:17:16;22.82;53.11
77727;SHT30;68312;53.502;10.030;2023-07-13T12:19:43;22.64;54.84
77727;SHT30;68312;53.502;10.030;2023-07-13T12:22:12;21.59;57.34
77727;SHT30;68312;53.502;10.030;2023-07-13T12:24:41;20.29;67.12
77727;SHT30;68312;53.502;10.030;2023-07-13T12:27:23;18.76;76.08
77727;SHT30;68312;53.502;10.030;2023-07-13T12:30:01;17.73;80.09
77727;SHT30;68312;53.502;10.030;2023-07-13T12:32:27;17.52;80.95
77727;SHT30;68312;53.502;10.030;2023-07-13T12:34:57;17.67;83.37
77727;SHT30;68312;53.502;10.030;2023-07-13T12:37:28;17.93;80.02
77727;SHT30;68312;53.502;10.030;2023-07-13T12:39:56;18.28;80.78
77727;SHT30;68312;53.502;10.030;2023-07-13T12:42:28;18.95;77.47
77727;SHT30;68312;53.502;10.030;2023-07-13T12:45:26;19.89;75.51
77727;SHT30;68312;53.502;10.030;2023-07-13T12:47:57;19.85;74.56
77727;SHT30;68312;53.502;10.030;2023-07-13T12:50:38;19.60;75.05
77727;SHT30;68312;53.502;10.030;2023-07-13T12:53:14;19.38;75.03
77727;SHT30;68312;53.502;10.030;2023-07-13T12:55:48;19.23;75.60
77727;SHT30;68312;53.502;10.030;2023-07-13T12:58:41;19.14;77.64
77727;SHT30;68312;53.502;10.030;2023-07-13T13:01:10;18.98;77.68
77727;SHT30;68312;53.502;10.030;2023-07-13T13:03:44;18.77;77.99
77727;SHT30;68312;53.502;10.030;2023-07-13T13:08:42;18.40;76.38
77727;SHT30;68312;53.502;10.030;2023-07-13T13:11:08;18.31;77.16
77727;SHT30;68312;53.502;10.030;2023-07-13T13:13:35;18.38;79.01
77727;SHT30;68312;53.502;10.030;2023-07-13T13:16:22;18.44;78.29
77727;SHT30;68312;53.502;10.030;2023-07-13T13:18:51;18.52;79.44
77727;SHT30;68312;53.502;10.030;2023-07-13T13:21:18;18.75;78.20
77727;SHT30;68312;53.502;10.030;2023-07-13T13:23:50;19.02;78.07
77727;SHT30;68312;53.502;10.030;2023-07-13T13:26:23;19.33;74.96
77727;SHT30;68312;53.502;10.030;2023-07-13T13:28:49;19.60;73.19
77727;SHT30;68312;53.502;10.030;2023-07-13T13:31:15;19.92;75.00
77727;SHT30;68312;53.502;10.030;2023-07-13T13:33:43;19.89;70.37
77727;SHT30;68312;53.502;10.030;2023-07-13T13:36:17;20.06;72.47
77727;SHT30;68312;53.502;10.030;2023-07-13T13:38:44;19.85;71.43
77727;SHT30;68312;53.502;10.030;2023-07-13T13:41:12;20.04;70.43
77727;SHT30;68312;53.502;10.030;2023-07-13T13:43:40;19.88;69.12
77727;SHT30;68312;53.502;10.030;2023-07-13T13:46:16;19.50;69.29
77727;SHT30;68312;53.502;10.030;2023-07-13T13:48:43;19.41;71.71
77727;SHT30;68312;53.502;10.030;2023-07-13T13:51:21;19.30;70.79
77727;SHT30;68312;53.502;10.030;2023-07-13T13:53:48;18.99;70.51
77727;SHT30;68312;53.502;10.030;2023-07-13T13:56:15;19.03;70.48
77727;SHT30;68312;53.502;10.030;2023-07-13T13:58:41;19.14;71.66
77727;SHT30;68312;53.502;10.030;2023-07-13T14:01:17;19.10;71.38
77727;SHT30;68312;53.502;10.030;2023-07-13T14:03:43;18.99;69.56
77727;SHT30;68312;53.502;10.030;2023-07-13T14:06:13;18.72;69.79
77727;SHT30;68312;53.502;10.030;2023-07-13T14:08:39;18.83;70.70
77727;SHT30;68312;53.502;10.030;2023-07-13T14:11:04;19.00;71.91
77727;SHT30;68312;53.502;10.030;2023-07-13T14:13:38;19.07;70.17
77727;SHT30;68312;53.502;10.030;2023-07-13T14:16:17;19.20;69.69
77727;SHT30;68312;53.502;10.030;2023-07-13T14:18:47;19.37;69.61
77727;SHT30;68312;53.502;10.030;2023-07-13T14:21:20;19.65;69.59
77727;SHT30;68312;53.502;10.030;2023-07-13T14:23:48;19.77;69.07
77727;SHT30;68312;53.502;10.030;2023-07-13T14:26:20;19.98;70.08
77727;SHT30;68312;53.502;10.030;2023-07-13T14:28:51;19.83;67.28
77727;SHT30;68312;53.502;10.030;2023-07-13T14:31:18;19.68;66.94
77727;SHT30;68312;53.502;10.030;2023-07-13T14:33:45;19.77;67.02
77727;SHT30;68312;53.502;10.030;2023-07-13T14:36:33;20.04;69.12
77727;SHT30;68312;53.502;10.030;2023-07-13T14:39:05;20.09;66.13
77727;SHT30;68312;53.502;10.030;2023-07-13T14:41:31;20.12;66.44
77727;SHT30;68312;53.502;10.030;2023-07-13T14:43:56;20.12;66.22
77727;SHT30;68312;53.502;10.030;2023-07-13T14:46:30;20.25;66.74
77727;SHT30;68312;53.502;10.030;2023-07-13T14:49:02;20.30;64.49
77727;SHT30;68312;53.502;10.030;2023-07-13T14:51:31;20.68;63.88
77727;SHT30;68312;53.502;10.030;2023-07-13T14:53:58;20.95;63.19
77727;SHT30;68312;53.502;10.030;2023-07-13T14:56:25;20.84;62.79
77727;SHT30;68312;53.502;10.030;2023-07-13T14:58:50;20.56;63.48
77727;SHT30;68312;53.502;10.030;2023-07-13T15:01:18;20.60;63.54
77727;SHT30;68312;53.502;10.030;2023-07-13T15:03:48;20.41;63.86
77727;SHT30;68312;53.502;10.030;2023-07-13T15:06:14;20.05;65.44
77727;SHT30;68312;53.502;10.030;2023-07-13T15:08:41;19.99;66.29
77727;SHT30;68312;53.502;10.030;2023-07-13T15:11:08;19.98;67.98
77727;SHT30;68312;53.502;10.030;2023-07-13T15:13:40;19.92;69.79
77727;SHT30;68312;53.502;10.030;2023-07-13T15:16:21;19.85;70.98
77727;SHT30;68312;53.502;10.030;2023-07-13T15:18:47;20.04;70.10
77727;SHT30;68312;53.502;10.030;2023-07-13T15:21:21;20.95;67.40
77727;SHT30;68312;53.502;10.030;2023-07-13T15:23:47;22.00;62.67
77727;SHT30;68312;53.502;10.030;2023-07-13T15:26:16;22.92;58.50
77727;SHT30;68312;53.502;10.030;2023-07-13T15:28:43;22.65;59.47
77727;SHT30;68312;53.502;10.030;2023-07-13T15:31:25;22.04;60.00
77727;SHT30;68312;53.502;10.030;2023-07-13T15:33:54;21.45;61.75
77727;SHT30;68312;53.502;10.030;2023-07-13T15:36:21;20.84;62.84
77727;SHT30;68312;53.502;10.030;2023-07-13T15:38:50;20.50;63.94
77727;SHT30;68312;53.502;10.030;2023-07-13T15:41:23;20.25;64.66
77727;SHT30;68312;53.502;10.030;2023-07-13T15:43:52;20.16;66.25
77727;SHT30;68312;53.502;10.030;2023-07-13T15:46:20;20.20;65.71
77727;SHT30;68312;53.502;10.030;2023-07-13T15:48:50;20.30;64.58
77727;SHT30;68312;53.502;10.030;2023-07-13T15:51:29;20.76;64.25
77727;SHT30;68312;53.502;10.030;2023-07-13T15:53:59;20.94;60.78
77727;SHT30;68312;53.502;10.030;2023-07-13T15:56:29;20.87;62.12
77727;SHT30;68312;53.502;10.030;2023-07-13T15:58:56;20.67;62.42
77727;SHT30;68312;53.502;10.030;2023-07-13T16:01:23;20.66;63.04
77727;SHT30;68312;53.502;10.030;2023-07-13T16:03:49;20.53;63.68
77727;SHT30;68312;53.502;10.030;2023-07-13T16:06:22;20.50;63.52
77727;SHT30;68312;53.502;10.030;2023-07-13T16:08:50;20.49;64.34
77727;SHT30;68312;53.502;10.030;2023-07-13T16:11:27;20.26;61.73
77727;SHT30;68312;53.502;10.030;2023-07-13T16:13:54;20.19;62.55
77727;SHT30;68312;53.502;10.030;2023-07-13T16:16:28;20.25;63.67
77727;SHT30;68312;53.502;10.030;2023-07-13T16:18:55;20.29;63.70
77727;SHT30;68312;53.502;10.030;2023-07-13T16:21:24;20.25;64.51
77727;SHT30;68312;53.502;10.030;2023-07-13T16:23:52;20.08;65.22
77727;SHT30;68312;53.502;10.030;2023-07-13T16:26:34;20.01;62.94
77727;SHT30;68312;53.502;10.030;2023-07-13T16:29:24;20.28;63.86